createdAt,value
2023-03-20T00:03:41.532Z,1.27
2023-03-20T00:08:45.983Z,1.48
2023-03-20T00:13:47.523Z,2.65
2023-03-20T00:18:49.033Z,2.75
2023-03-20T00:23:50.535Z,0.93
2023-03-20T00:28:52.696Z,1.35
2023-03-20T00:33:57.225Z,2.42
2023-03-20T00:38:58.960Z,2.05
2023-03-20T00:44:03.410Z,2.60
2023-03-20T00:49:05.015Z,1.58
2023-03-20T00:54:17.294Z,2.58
2023-03-20T00:59:22.621Z,2.78
2023-03-20T01:04:25.040Z,2.92
2023-03-20T01:09:26.609Z,2.78
2023-03-20T01:14:28.244Z,2.72
2023-03-20T01:19:29.727Z,3.03
2023-03-20T01:24:31.381Z,3.83
2023-03-20T01:29:33.025Z,2.47
2023-03-20T01:34:34.639Z,2.88
2023-03-20T01:39:37.369Z,2.97
2023-03-20T01:44:39.964Z,2.30
2023-03-20T01:50:22.408Z,2.63
2023-03-20T01:55:26.450Z,1.90
2023-03-20T02:00:34.241Z,3.33
2023-03-20T02:05:38.149Z,3.78
2023-03-20T02:10:40.953Z,4.82
2023-03-20T02:15:56.954Z,2.40
2023-03-20T02:21:22.343Z,3.40
2023-03-20T02:26:46.782Z,4.32
2023-03-20T02:32:09.451Z,2.78
2023-03-20T02:37:23.119Z,2.70
2023-03-20T02:42:40.444Z,3.25
2023-03-20T02:47:52.068Z,4.47
2023-03-20T02:53:27.663Z,4.05
2023-03-20T02:58:39.067Z,5.15
2023-03-20T03:03:48.632Z,4.57
2023-03-20T03:08:56.119Z,4.23
2023-03-20T03:13:58.950Z,5.85
2023-03-20T03:19:07.318Z,5.18
2023-03-20T03:24:40.816Z,6.30
2023-03-20T03:29:49.477Z,4.95
2023-03-20T03:34:52.793Z,5.90
2023-03-20T03:40:43.421Z,4.90
2023-03-20T03:45:53.772Z,4.57
2023-03-20T03:51:00.520Z,5.43
2023-03-20T03:56:08.272Z,6.22
2023-03-20T04:01:12.847Z,6.18
2023-03-20T04:06:17.231Z,10.30
2023-03-20T04:11:21.420Z,7.32
2023-03-20T04:16:26.305Z,8.23
2023-03-20T04:21:29.188Z,8.05
2023-03-20T04:26:30.946Z,8.95
2023-03-20T04:31:33.018Z,9.68
2023-03-20T04:36:45.719Z,9.48
2023-03-20T04:41:49.506Z,10.68
2023-03-20T04:46:51.174Z,11.07
2023-03-20T04:51:53.409Z,11.32
2023-03-20T04:57:07.352Z,11.95
2023-03-20T05:02:09.726Z,12.05
2023-03-20T05:07:12.838Z,13.07
2023-03-20T05:12:24.836Z,14.60
2023-03-20T05:18:01.940Z,13.43
2023-03-20T05:23:23.724Z,11.65
2023-03-20T05:28:40.505Z,13.75
2023-03-20T05:33:55.592Z,13.40
2023-03-20T05:39:11.678Z,16.85
2023-03-20T05:44:36.557Z,15.57
2023-03-20T05:49:54.758Z,15.05
2023-03-20T05:55:02.769Z,12.70
2023-03-20T06:00:23.502Z,16.77
2023-03-20T06:05:45.323Z,14.38
2023-03-20T06:10:50.311Z,12.65
2023-03-20T06:15:52.272Z,13.07
2023-03-20T06:20:57.831Z,13.07
2023-03-20T06:26:02.388Z,10.50
2023-03-20T06:31:06.942Z,11.75
2023-03-20T06:36:09.184Z,10.95
2023-03-20T06:41:13.566Z,10.70
2023-03-20T06:46:21.621Z,12.93
2023-03-20T06:51:23.408Z,11.68
2023-03-20T06:56:27.932Z,12.85
2023-03-20T07:01:29.598Z,11.77
2023-03-20T07:06:37.015Z,13.43
2023-03-20T07:11:38.604Z,11.77
2023-03-20T07:16:40.879Z,12.68
2023-03-20T07:21:43.865Z,12.55
2023-03-20T07:26:47.276Z,14.23
2023-03-20T07:31:49.172Z,12.70
2023-03-20T07:37:00.685Z,12.60
2023-03-20T07:42:03.899Z,12.10
2023-03-20T07:47:24.536Z,14.25
2023-03-20T07:52:26.596Z,13.02
2023-03-20T07:57:28.445Z,13.30
2023-03-20T08:02:31.726Z,13.70
2023-03-20T08:07:33.237Z,12.70
2023-03-20T08:12:34.860Z,10.43
2023-03-20T08:17:36.358Z,13.95
2023-03-20T08:22:37.914Z,10.25
2023-03-20T08:27:39.482Z,13.20
2023-03-20T08:32:43.617Z,11.52
2023-03-20T08:37:45.503Z,10.90
2023-03-20T08:42:46.996Z,12.10
2023-03-20T08:47:51.695Z,12.13
2023-03-20T08:52:53.219Z,12.02
2023-03-20T08:57:57.215Z,11.10
2023-03-20T09:02:58.764Z,12.30
2023-03-20T09:08:00.558Z,11.85
2023-03-20T09:13:09.584Z,11.82
2023-03-20T09:18:17.624Z,12.00
2023-03-20T09:23:19.551Z,10.80
2023-03-20T09:28:21.231Z,10.30
2023-03-20T09:33:22.794Z,8.27
2023-03-20T09:38:24.448Z,10.43
2023-03-20T09:43:52.424Z,9.25
2023-03-20T09:49:13.221Z,10.93
2023-03-20T09:54:24.603Z,9.18
2023-03-20T09:59:27.612Z,11.45
2023-03-20T10:04:29.747Z,10.30
2023-03-20T10:09:32.247Z,10.25
2023-03-20T10:14:42.122Z,10.80
2023-03-20T10:25:16.853Z,7.85
2023-03-20T10:30:37.008Z,9.93
2023-03-20T10:35:51.208Z,10.30
2023-03-20T10:40:55.364Z,8.30
2023-03-20T10:46:13.313Z,7.45
2023-03-20T10:51:19.366Z,9.45
2023-03-20T10:56:44.346Z,7.35
2023-03-20T11:01:46.037Z,7.75
2023-03-20T11:06:56.329Z,7.70
2023-03-20T11:12:00.111Z,8.20
2023-03-20T11:17:04.025Z,7.60
2023-03-20T11:22:26.205Z,9.10
2023-03-20T11:27:30.339Z,8.57
2023-03-20T11:32:39.397Z,10.15
2023-03-20T11:37:46.602Z,6.43
2023-03-20T11:42:57.828Z,6.35
2023-03-20T11:48:03.883Z,6.43
2023-03-20T11:53:26.147Z,6.00
2023-03-20T11:58:29.844Z,8.73
2023-03-20T12:03:42.803Z,8.13
2023-03-20T12:08:50.443Z,6.80
2023-03-20T12:13:54.160Z,8.55
2023-03-20T12:18:59.876Z,8.02
2023-03-20T12:24:26.499Z,6.28
2023-03-20T12:29:50.890Z,7.03
2023-03-20T12:35:16.850Z,5.75
2023-03-20T12:40:27.808Z,5.05
2023-03-20T12:45:44.640Z,5.65
2023-03-20T12:51:00.655Z,7.38
2023-03-20T12:56:21.013Z,5.63
2023-03-20T13:01:53.078Z,4.38
2023-03-20T13:06:59.557Z,8.88
2023-03-20T13:12:38.818Z,4.75
2023-03-20T13:17:50.865Z,6.18
2023-03-20T13:23:09.278Z,4.57
2023-03-20T13:28:45.348Z,4.22
2023-03-20T13:34:21.166Z,4.75
2023-03-20T13:39:28.921Z,4.18
2023-03-20T13:44:33.070Z,5.10
2023-03-20T13:49:42.623Z,3.55
2023-03-20T13:55:22.046Z,2.30
2023-03-20T14:00:52.598Z,4.13
2023-03-20T14:05:54.951Z,4.82
2023-03-20T14:11:32.292Z,4.40
2023-03-20T14:16:34.006Z,4.22
2023-03-20T14:21:36.252Z,5.03
2023-03-20T14:26:41.833Z,4.13
2023-03-20T14:31:45.212Z,4.50
2023-03-20T14:37:05.720Z,4.88
2023-03-20T14:42:19.450Z,3.38
2023-03-20T14:47:48.887Z,5.75
2023-03-20T14:52:55.703Z,4.05
2023-03-20T14:58:02.716Z,4.85
2023-03-20T15:03:10.701Z,5.45
2023-03-20T15:08:24.943Z,4.15
2023-03-20T15:13:27.912Z,5.32
2023-03-20T15:18:30.099Z,3.88
2023-03-20T15:23:31.632Z,4.10
2023-03-20T15:28:37.629Z,4.10
2023-03-20T15:33:42.923Z,3.65
2023-03-20T15:38:46.816Z,5.90
2023-03-20T15:43:48.352Z,3.55
2023-03-20T15:48:50.004Z,4.20
2023-03-20T15:53:51.730Z,6.10
2023-03-20T15:58:56.632Z,5.47
2023-03-20T16:03:59.913Z,3.17
2023-03-20T16:09:13.796Z,3.38
2023-03-20T16:14:25.646Z,3.53
2023-03-20T16:19:29.107Z,4.82
2023-03-20T16:24:36.232Z,4.10
2023-03-20T16:29:43.861Z,3.80
2023-03-20T16:34:51.343Z,3.92
2023-03-20T16:40:05.914Z,5.15
2023-03-20T16:45:19.799Z,4.10
2023-03-20T16:50:23.220Z,3.75
2023-03-20T16:55:29.504Z,4.07
2023-03-20T17:00:41.741Z,3.90
2023-03-20T17:05:49.435Z,4.40
2023-03-20T17:10:57.292Z,5.05
2023-03-20T17:15:59.615Z,6.05
2023-03-20T17:21:01.203Z,4.10
2023-03-20T17:26:02.773Z,4.30
2023-03-20T17:31:05.454Z,5.05
2023-03-20T17:36:39.493Z,5.40
2023-03-20T17:41:40.975Z,6.40
2023-03-20T17:46:56.612Z,6.03
2023-03-20T17:51:59.077Z,5.90
2023-03-20T17:57:01.686Z,8.25
2023-03-20T18:02:03.382Z,6.32
2023-03-20T18:07:04.970Z,6.30
2023-03-20T18:12:09.837Z,5.90
2023-03-20T18:17:13.187Z,5.75
2023-03-20T18:22:14.747Z,5.85
2023-03-20T18:27:16.691Z,5.65
2023-03-20T18:32:18.197Z,7.75
2023-03-20T18:37:22.078Z,6.03
2023-03-20T18:42:23.709Z,5.95
2023-03-20T18:47:25.382Z,8.63
2023-03-20T18:52:27.115Z,6.25
2023-03-20T18:57:28.624Z,5.82
2023-03-20T19:02:30.152Z,5.53
2023-03-20T19:07:31.670Z,7.20
2023-03-20T19:12:33.230Z,5.43
2023-03-20T19:17:34.766Z,5.30
2023-03-20T19:22:36.306Z,4.80
2023-03-20T19:27:37.919Z,5.20
2023-03-20T19:32:42.629Z,5.20
2023-03-20T19:37:44.191Z,4.93
2023-03-20T19:43:01.014Z,4.60
2023-03-20T19:48:12.341Z,6.53
2023-03-20T19:53:16.611Z,3.85
2023-03-20T19:58:18.135Z,9.88
2023-03-20T20:03:22.731Z,7.68
2023-03-20T20:08:41.352Z,9.15
2023-03-20T20:14:07.170Z,6.72
2023-03-20T20:19:08.267Z,7.07
2023-03-20T20:24:10.447Z,6.85
2023-03-20T20:29:11.980Z,5.38
2023-03-20T20:39:35.081Z,5.05
2023-03-20T20:44:36.921Z,5.40
2023-03-20T20:49:38.649Z,5.63
2023-03-20T20:54:43.634Z,5.72
2023-03-20T20:59:45.165Z,5.30
2023-03-20T21:04:46.708Z,4.38
2023-03-20T21:09:48.268Z,6.15
2023-03-20T21:14:50.887Z,6.70
2023-03-20T21:19:53.453Z,6.20
2023-03-20T21:25:11.031Z,4.95
2023-03-20T21:30:15.494Z,6.70
2023-03-20T21:35:17.147Z,6.22
2023-03-20T21:40:18.742Z,6.28
2023-03-20T21:46:46.694Z,6.82
2023-03-20T21:51:04.142Z,6.88
2023-03-20T22:07:28.599Z,6.93
2023-03-20T22:18:02.951Z,5.57
2023-03-20T22:28:56.681Z,5.38
2023-03-20T22:34:30.665Z,5.35
2023-03-20T22:39:34.039Z,4.97
2023-03-20T22:45:19.656Z,4.45
2023-03-20T22:49:39.860Z,6.68
2023-03-20T22:54:41.455Z,7.13
2023-03-20T22:59:42.985Z,4.22
2023-03-20T23:04:44.620Z,8.02
2023-03-20T23:09:47.753Z,5.50
2023-03-20T23:14:49.421Z,5.68
2023-03-20T23:19:59.242Z,5.82
2023-03-20T23:25:18.240Z,4.72
2023-03-20T23:30:30.979Z,4.50
2023-03-20T23:35:36.003Z,6.45
2023-03-20T23:40:38.067Z,5.53
2023-03-20T23:45:40.100Z,4.95
2023-03-20T23:50:52.203Z,5.28
2023-03-20T23:55:56.434Z,5.63
